Time;durP1;ratioP1;P1;durP2;ratioP2;P2;SDS_P1;SDS_P2;PMS_P1;PMS_P2;Temp;Humidity;BMP_temperature;BMP_pressure;BME280_temperature;BME280_humidity;BME280_pressure;Samples;Min_cycle;Max_cycle;Signal;HPM_P1;HPM_P2
2022/07/11 00:03:07;;;;;;;4.25;2.00;;;;;;;20.28;62.75;101223.72;10369400;28;20274;-84
2022/07/11 00:08:09;;;;;;;3.38;1.83;;;;;;;20.38;62.45;101221.28;10387510;28;20212;-85
2022/07/11 00:13:12;;;;;;;3.20;1.75;;;;;;;19.97;63.68;101224.13;10381947;28;20188;-85
2022/07/11 00:18:15;;;;;;;3.58;1.73;;;;;;;20.33;63.48;101218.66;10371347;28;20189;-85
2022/07/11 00:23:18;;;;;;;7.05;2.35;;;;;;;20.12;64.05;101220.66;10350581;28;20201;-85
2022/07/11 00:28:21;;;;;;;2.53;1.95;;;;;;;19.88;64.75;101223.31;10384997;28;20293;-85
2022/07/11 00:33:23;;;;;;;4.88;2.25;;;;;;;20.18;63.42;101210.75;10408707;28;20272;-86
2022/07/11 00:38:26;;;;;;;3.40;1.80;;;;;;;19.96;63.79;101216.78;10413285;28;20185;-85
2022/07/11 00:43:30;;;;;;;8.40;2.13;;;;;;;19.72;65.35;101215.38;10401012;28;20197;-85
2022/07/11 00:48:35;;;;;;;4.03;2.67;;;;;;;19.35;66.60;101221.91;10400329;28;20208;-85
2022/07/11 00:53:38;;;;;;;5.20;1.95;;;;;;;19.38;67.12;101212.72;10406429;28;20258;-84
2022/07/11 00:58:41;;;;;;;8.30;2.67;;;;;;;19.37;67.13;101213.88;10395550;28;20656;-85
2022/07/11 01:03:45;;;;;;;6.38;2.15;;;;;;;19.65;66.30;101205.75;10376638;28;20542;-87
2022/07/11 01:08:48;;;;;;;8.07;2.67;;;;;;;19.23;67.32;101213.28;10379649;28;20257;-84
2022/07/11 01:13:51;;;;;;;6.93;2.80;;;;;;;19.17;67.70;101208.97;10377154;28;20209;-84
2022/07/11 01:18:54;;;;;;;6.75;2.70;;;;;;;19.07;68.40;101210.97;10392547;28;20251;-85
2022/07/11 01:23:59;;;;;;;4.93;2.40;;;;;;;19.63;67.12;101206.09;10367806;28;20242;-85
2022/07/11 01:29:12;;;;;;;4.07;2.53;;;;;;;19.59;67.11;101205.09;10389787;28;20641;-85
2022/07/11 01:34:16;;;;;;;5.95;2.42;;;;;;;19.52;67.69;101216.16;10403525;28;20192;-84
2022/07/11 01:39:18;;;;;;;8.23;2.70;;;;;;;19.23;68.64;101210.44;10406188;28;20482;-83
2022/07/11 01:44:20;;;;;;;5.80;2.83;;;;;;;19.31;68.28;101215.25;10376972;28;20197;-84
2022/07/11 01:49:23;;;;;;;6.63;2.47;;;;;;;19.32;68.07;101205.59;10382109;28;20287;-83
2022/07/11 01:54:25;;;;;;;7.78;2.60;;;;;;;19.38;68.00;101207.03;10384320;28;20541;-84
2022/07/11 01:59:28;;;;;;;6.72;2.60;;;;;;;19.09;69.34;101207.81;10385344;28;20208;-85
2022/07/11 02:04:31;;;;;;;8.88;2.80;;;;;;;19.22;68.47;101205.94;10378789;28;20726;-84
2022/07/11 02:09:33;;;;;;;4.28;2.45;;;;;;;19.12;69.44;101211.97;10376513;28;20266;-84
2022/07/11 02:14:36;;;;;;;7.45;2.97;;;;;;;19.22;68.95;101200.25;10364305;28;20212;-83
2022/07/11 02:19:39;;;;;;;4.15;2.47;;;;;;;19.00;70.12;101204.19;10404784;28;20656;-85
2022/07/11 02:24:41;;;;;;;4.80;2.60;;;;;;;19.19;69.68;101206.63;10380519;28;20189;-84
2022/07/11 02:29:44;;;;;;;4.13;2.58;;;;;;;19.49;67.89;101205.47;10390468;28;20579;-84
2022/07/11 02:34:46;;;;;;;9.20;3.10;;;;;;;19.37;69.17;101213.88;10372290;28;20204;-83
2022/07/11 02:39:50;;;;;;;5.35;2.95;;;;;;;19.50;68.26;101212.00;10397384;28;20201;-84
2022/07/11 02:44:52;;;;;;;3.30;2.47;;;;;;;19.57;68.00;101204.63;10407615;28;20259;-85
2022/07/11 02:49:55;;;;;;;8.63;2.50;;;;;;;19.79;66.73;101210.03;10405015;28;20270;-85
2022/07/11 02:54:57;;;;;;;7.53;2.40;;;;;;;19.86;66.52;101208.63;10397098;28;20201;-85
2022/07/11 03:00:00;;;;;;;5.57;2.60;;;;;;;19.65;67.42;101200.06;10373472;28;20197;-85
2022/07/11 03:05:03;;;;;;;4.97;2.72;;;;;;;19.10;68.96;101203.81;10386996;28;20211;-84
2022/07/11 03:10:06;;;;;;;4.50;2.63;;;;;;;19.34;68.64;101211.72;10373178;28;20279;-84
2022/07/11 03:22:17;;;;;;;7.10;2.80;;;;;;;19.25;68.34;101210.94;10401675;28;20219;-85
2022/07/11 03:27:20;;;;;;;6.30;2.97;;;;;;;19.25;69.00;101213.78;10358675;28;20560;-84
2022/07/11 03:32:23;;;;;;;9.07;3.45;;;;;;;19.28;69.11;101210.25;10377168;28;20216;-84
2022/07/11 03:37:31;;;;;;;7.55;3.17;;;;;;;19.04;68.54;101227.84;10402791;28;20193;-84
2022/07/11 03:42:33;;;;;;;14.40;3.83;;;;;;;19.35;68.55;101216.22;10386322;28;20192;-83
2022/07/11 03:47:36;;;;;;;18.88;5.90;;;;;;;19.16;69.91;101213.81;10400186;28;20213;-85
2022/07/11 03:52:39;;;;;;;12.85;5.60;;;;;;;17.88;73.59;101224.00;10403192;28;20570;-84
2022/07/11 03:57:41;;;;;;;20.17;5.65;;;;;;;19.69;67.68;101221.75;10382536;28;20193;-86
2022/07/11 04:02:43;;;;;;;16.52;6.15;;;;;;;19.42;69.26;101225.06;10347862;28;20204;-82
2022/07/11 04:07:46;;;;;;;9.40;3.65;;;;;;;19.29;69.35;101228.94;10401811;28;20239;-85
2022/07/11 04:12:48;;;;;;;10.97;3.83;;;;;;;18.53;71.57;101221.09;10365836;28;20258;-84
2022/07/11 04:17:50;;;;;;;8.57;3.80;;;;;;;19.22;70.00;101220.94;10415007;28;20189;-84
2022/07/11 04:22:53;;;;;;;7.53;3.20;;;;;;;19.41;68.46;101220.56;10418354;28;20505;-83
2022/07/11 04:27:55;;;;;;;11.87;3.50;;;;;;;19.18;69.55;101221.97;10409237;28;20240;-84
2022/07/11 04:32:57;;;;;;;4.70;2.47;;;;;;;18.79;70.72;101226.72;10357607;28;20255;-84
2022/07/11 04:38:00;;;;;;;6.90;3.13;;;;;;;19.46;68.42;101231.69;10418570;28;20188;-86
2022/07/11 04:43:02;;;;;;;5.87;3.30;;;;;;;18.16;75.14;101239.50;10388650;28;20239;-82
2022/07/11 04:48:05;;;;;;;6.28;2.63;;;;;;;17.82;76.04;101245.13;10328431;28;20271;-84
2022/07/11 04:53:08;;;;;;;5.40;2.97;;;;;;;19.13;70.58;101237.16;10373420;28;20219;-83
2022/07/11 04:58:11;;;;;;;6.50;3.13;;;;;;;18.49;73.17;101241.91;10417687;28;20189;-83
2022/07/11 05:03:14;;;;;;;4.90;2.60;;;;;;;18.68;72.45;101242.41;10403687;28;20197;-87
2022/07/11 05:08:17;;;;;;;8.37;3.33;;;;;;;18.78;71.87;101252.56;10367727;28;20919;-84
2022/07/11 05:13:19;;;;;;;6.72;3.08;;;;;;;18.28;73.75;101256.75;10376438;28;20239;-82
2022/07/11 05:18:22;;;;;;;12.23;5.25;;;;;;;18.79;71.38;101257.06;10395152;28;20672;-83
2022/07/11 05:23:24;;;;;;;9.25;5.20;;;;;;;18.64;71.82;101253.56;10380352;28;20594;-84
2022/07/11 05:28:27;;;;;;;6.53;4.43;;;;;;;18.67;71.53;101258.56;10362356;28;20690;-84
2022/07/11 05:33:29;;;;;;;7.27;2.67;;;;;;;17.83;75.28;101263.75;10378918;28;20247;-83
2022/07/11 05:38:32;;;;;;;4.25;2.33;;;;;;;18.04;74.81;101267.63;10388917;28;20557;-84
2022/07/11 05:43:34;;;;;;;3.93;2.30;;;;;;;18.44;73.56;101270.38;10373710;28;20189;-83
2022/07/11 05:48:37;;;;;;;5.03;2.35;;;;;;;18.16;73.68;101279.13;10360085;28;20220;-83
2022/07/11 05:53:39;;;;;;;4.00;1.50;;;;;;;18.41;71.57;101271.91;10368262;28;20185;-83
2022/07/11 05:58:42;;;;;;;3.97;1.95;;;;;;;18.56;69.92;101276.22;10376681;28;21603;-84
2022/07/11 06:03:44;;;;;;;4.10;0.87;;;;;;;18.39;70.02;101274.22;10375943;28;20216;-84
2022/07/11 06:08:48;;;;;;;2.47;1.27;;;;;;;18.84;69.20;101277.53;10380847;28;20560;-84
2022/07/11 06:13:50;;;;;;;2.50;0.90;;;;;;;18.80;68.65;101282.22;10387406;28;20209;-83
2022/07/11 06:18:59;;;;;;;2.25;0.93;;;;;;;19.24;65.89;101289.50;10391492;28;20305;-84
2022/07/11 06:24:02;;;;;;;1.85;1.00;;;;;;;19.23;64.69;101287.81;10381995;28;20193;-84
2022/07/11 06:29:05;;;;;;;1.75;0.95;;;;;;;18.99;64.54;101294.06;10388409;28;20658;-84
2022/07/11 06:34:07;;;;;;;1.08;0.30;;;;;;;18.95;64.37;101292.19;10399408;28;20193;-85
2022/07/11 06:39:10;;;;;;;0.70;0.30;;;;;;;19.59;61.29;101289.41;10377620;28;20246;-84
2022/07/11 06:44:12;;;;;;;0.15;0.10;;;;;;;19.31;62.29;101300.34;10390893;28;20791;-83
2022/07/11 06:49:14;;;;;;;0.38;0.20;;;;;;;18.70;65.02;101302.38;10403688;28;20504;-85
2022/07/11 06:54:17;;;;;;;1.15;0.60;;;;;;;18.75;65.24;101305.06;10399044;28;20192;-84
2022/07/11 06:59:19;;;;;;;0.70;0.20;;;;;;;18.12;67.76;101309.28;10395451;28;20196;-84
2022/07/11 07:04:21;;;;;;;1.55;1.10;;;;;;;19.15;63.44;101302.88;10393448;28;20268;-84
2022/07/11 07:09:24;;;;;;;2.33;0.60;;;;;;;18.61;65.95;101302.38;10393635;28;20299;-83
2022/07/11 07:14:26;;;;;;;1.10;0.60;;;;;;;18.71;65.61;101309.72;10354857;28;20463;-86
2022/07/11 07:19:29;;;;;;;1.20;0.47;;;;;;;18.43;67.30;101309.19;10383878;28;20200;-86
2022/07/11 07:24:32;;;;;;;1.13;0.40;;;;;;;18.94;66.15;101304.72;10390764;28;20201;-85
2022/07/11 07:29:34;;;;;;;0.40;0.20;;;;;;;19.61;64.33;101307.72;10345164;28;20641;-86
2022/07/11 07:34:37;;;;;;;0.40;0.20;;;;;;;19.39;64.72;101314.47;10404351;28;20239;-85
2022/07/11 07:39:39;;;;;;;4.10;0.87;;;;;;;19.00;65.61;101311.91;10387373;28;20200;-86
2022/07/11 07:44:41;;;;;;;0.50;0.40;;;;;;;19.31;64.59;101306.00;10400154;28;20197;-86
2022/07/11 07:49:44;;;;;;;1.48;0.47;;;;;;;19.59;64.15;101315.75;10377386;28;20248;-83
2022/07/11 07:54:47;;;;;;;3.93;0.80;;;;;;;19.12;66.48;101314.88;10361486;28;20251;-84
2022/07/11 07:59:49;;;;;;;1.02;0.60;;;;;;;19.49;64.98;101313.28;10388696;28;20601;-84
2022/07/11 08:04:51;;;;;;;2.43;0.60;;;;;;;18.78;68.31;101310.06;10375766;28;20244;-83
2022/07/11 08:09:54;;;;;;;1.27;0.60;;;;;;;18.91;67.95;101309.06;10343993;28;20282;-84
2022/07/11 08:14:56;;;;;;;1.30;0.57;;;;;;;19.30;66.95;101316.53;10375152;28;20201;-85
2022/07/11 08:19:58;;;;;;;1.83;0.40;;;;;;;19.74;64.61;101309.50;10382533;28;20579;-84
2022/07/11 08:25:01;;;;;;;1.55;0.40;;;;;;;20.15;65.14;101302.31;10356024;28;20216;-84
2022/07/11 08:30:07;;;;;;;1.33;0.40;;;;;;;19.67;65.61;101309.22;10382733;28;20217;-83
2022/07/11 08:35:11;;;;;;;1.17;0.67;;;;;;;19.67;66.20;101320.56;10370587;28;20192;-84
2022/07/11 08:40:13;;;;;;;1.08;0.73;;;;;;;19.23;68.38;101323.84;10354629;28;20259;-83
2022/07/11 08:45:16;;;;;;;2.42;0.63;;;;;;;19.33;68.51;101324.31;10341370;28;20586;-84
2022/07/11 08:50:20;;;;;;;1.73;0.67;;;;;;;19.05;71.82;101318.25;10350617;28;20213;-84
2022/07/11 08:55:22;;;;;;;2.40;1.00;;;;;;;18.21;76.70;101335.66;10390429;28;20263;-84
2022/07/11 09:00:25;;;;;;;2.72;0.57;;;;;;;19.26;72.19;101326.84;10353973;28;20595;-84
2022/07/11 09:05:28;;;;;;;2.58;0.82;;;;;;;18.25;76.13;101321.66;10397932;28;20725;-84
2022/07/11 09:10:30;;;;;;;1.95;0.90;;;;;;;19.67;70.66;101320.56;10375075;28;20361;-83
2022/07/11 09:15:39;;;;;;;1.15;0.95;;;;;;;20.72;68.58;101315.97;10386376;28;20242;-84
2022/07/11 09:26:19;;;;;;;1.08;0.85;;;;;;;20.81;64.76;101308.19;10388353;28;20227;-84
2022/07/11 09:31:21;;;;;;;1.00;0.68;;;;;;;20.92;63.36;101302.91;10371280;28;20284;-84
2022/07/11 09:36:37;;;;;;;2.25;0.52;;;;;;;21.18;62.86;101301.47;10379266;28;20201;-84
2022/07/11 09:41:40;;;;;;;0.70;0.40;;;;;;;19.97;66.35;101306.44;10374796;28;20274;-84
2022/07/11 09:46:46;;;;;;;0.77;0.60;;;;;;;20.60;65.07;101301.72;10391512;28;20266;-85
2022/07/11 09:51:48;;;;;;;1.27;0.68;;;;;;;20.76;63.60;101295.03;10358294;28;20576;-85
2022/07/11 09:56:52;;;;;;;2.97;0.80;;;;;;;20.46;64.42;101302.78;10391699;28;20185;-84
2022/07/11 10:01:58;;;;;;;0.85;0.30;;;;;;;20.41;64.09;101308.66;10364006;28;20274;-84
2022/07/11 10:07:01;;;;;;;1.35;0.30;;;;;;;20.35;63.94;101312.88;10370514;28;20216;-84
2022/07/11 10:12:03;;;;;;;0.85;0.80;;;;;;;19.12;67.49;101320.53;10366112;28;20290;-84
2022/07/11 10:17:11;;;;;;;1.38;1.00;;;;;;;20.48;63.25;101313.81;10374159;28;20193;-85
2022/07/11 10:22:14;;;;;;;1.67;1.50;;;;;;;19.75;66.22;101322.53;10376710;28;20190;-85
2022/07/11 10:27:27;;;;;;;2.03;1.40;;;;;;;19.78;65.54;101327.56;10358220;28;20196;-86
2022/07/11 10:33:04;;;;;;;2.08;1.35;;;;;;;19.76;65.63;101329.06;10390723;28;20256;-87
2022/07/11 10:38:07;;;;;;;2.30;1.42;;;;;;;19.73;65.66;101330.53;10357338;28;20197;-85
2022/07/11 10:43:09;;;;;;;2.08;1.50;;;;;;;19.09;66.46;101324.88;10378367;28;20212;-87
2022/07/11 10:48:12;;;;;;;2.05;1.85;;;;;;;19.51;66.03;101339.31;10377383;28;20286;-86
2022/07/11 10:53:22;;;;;;;1.45;1.20;;;;;;;19.46;67.06;101340.31;10374597;28;20479;-86
2022/07/11 10:58:31;;;;;;;1.52;1.35;;;;;;;19.39;66.88;101347.69;10346089;28;20240;-87
2022/07/11 11:03:36;;;;;;;1.50;1.30;;;;;;;19.63;66.50;101342.28;10373021;28;20692;-85
2022/07/11 11:08:40;;;;;;;0.70;0.70;;;;;;;20.05;64.70;101351.81;10375149;28;20306;-85
2022/07/11 11:13:43;;;;;;;0.93;0.93;;;;;;;19.92;66.03;101349.22;10404062;28;20254;-85
2022/07/11 11:18:45;;;;;;;1.20;0.60;;;;;;;19.87;66.18;101355.06;10393286;28;20292;-84
2022/07/11 11:24:02;;;;;;;1.40;0.28;;;;;;;20.03;66.00;101345.66;10376036;28;20279;-85
2022/07/11 11:29:07;;;;;;;0.47;0.30;;;;;;;20.09;64.45;101349.13;10388096;28;20332;-86
2022/07/11 11:34:10;;;;;;;0.38;0.22;;;;;;;20.84;62.59;101347.31;10380880;28;20317;-85
2022/07/11 11:39:21;;;;;;;0.40;0.30;;;;;;;21.30;61.16;101342.56;10382782;28;20585;-85
2022/07/11 11:44:25;;;;;;;3.42;0.60;;;;;;;21.46;60.73;101335.84;10355030;28;20232;-84
2022/07/11 11:49:27;;;;;;;0.63;0.63;;;;;;;22.32;56.85;101333.94;10395029;28;20586;-85
2022/07/11 11:54:29;;;;;;;1.27;0.70;;;;;;;22.54;55.36;101324.06;10346638;28;20229;-85
2022/07/11 11:59:32;;;;;;;1.63;0.52;;;;;;;22.77;54.44;101328.06;10374712;28;20572;-85
2022/07/11 12:04:36;;;;;;;0.57;0.35;;;;;;;21.88;56.70;101339.38;10376820;28;20266;-85
2022/07/11 12:09:50;;;;;;;0.20;0.20;;;;;;;22.01;57.22;101336.56;10356506;28;20274;-85
2022/07/11 12:14:53;;;;;;;1.85;0.50;;;;;;;21.10;59.55;101332.88;10395887;28;20251;-85
2022/07/11 12:19:56;;;;;;;0.82;0.22;;;;;;;22.16;56.99;101324.47;10363986;28;20208;-86
2022/07/11 12:24:58;;;;;;;0.30;0.30;;;;;;;21.20;59.96;101319.03;10391106;28;20282;-85
2022/07/11 12:30:00;;;;;;;1.17;0.30;;;;;;;21.67;56.45;101313.00;10362578;28;20311;-87
2022/07/11 12:35:12;;;;;;;0.47;0.25;;;;;;;23.76;51.69;101300.69;10396895;28;20221;-85
2022/07/11 12:40:14;;;;;;;0.15;0.15;;;;;;;23.85;50.53;101299.31;10388636;28;20272;-86
2022/07/11 12:45:18;;;;;;;0.47;0.20;;;;;;;22.77;53.77;101295.88;10364824;28;20216;-87
2022/07/11 12:50:28;;;;;;;0.20;0.20;;;;;;;21.64;56.45;101290.97;10386908;28;20232;-86
2022/07/11 12:55:35;;;;;;;0.10;0.10;;;;;;;22.62;54.71;101286.88;10382516;28;20225;-85
2022/07/11 13:00:41;;;;;;;0.30;0.30;;;;;;;21.97;56.79;101288.03;10377632;28;20301;-86
2022/07/11 13:05:50;;;;;;;2.70;0.43;;;;;;;22.49;55.26;101282.38;10353810;28;20319;-85
2022/07/11 13:11:00;;;;;;;1.23;0.40;;;;;;;22.27;55.61;101292.28;10372124;28;20248;-85
2022/07/11 13:16:09;;;;;;;0.20;0.20;;;;;;;22.74;53.90;101288.03;10381352;28;20215;-86
2022/07/11 13:21:12;;;;;;;0.65;0.20;;;;;;;22.02;56.12;101301.19;10378093;28;20619;-87
2022/07/11 13:26:14;;;;;;;0.90;0.20;;;;;;;22.46;55.79;101297.34;10369808;28;20224;-87
2022/07/11 13:31:17;;;;;;;0.73;0.40;;;;;;;20.84;59.96;101316.03;10368482;28;20252;-86
2022/07/11 13:36:19;;;;;;;0.32;0.32;;;;;;;21.98;57.30;101311.63;10354819;28;20559;-86
2022/07/11 13:41:22;;;;;;;1.88;0.40;;;;;;;22.71;55.56;101305.84;10371279;28;20553;-86
2022/07/11 13:46:24;;;;;;;0.40;0.40;;;;;;;21.97;56.45;101305.09;10377818;28;20220;-84
2022/07/11 13:51:31;;;;;;;0.60;0.50;;;;;;;21.42;56.74;101308.44;10382674;28;20302;-87
2022/07/11 13:56:34;;;;;;;1.52;0.47;;;;;;;21.89;56.66;101301.19;10383448;28;20577;-85
2022/07/11 14:01:37;;;;;;;2.50;0.80;;;;;;;22.09;55.45;101301.44;10368258;28;20569;-84
2022/07/11 14:06:40;;;;;;;0.77;0.77;;;;;;;22.85;55.32;101294.88;10354936;28;20307;-86
2022/07/11 14:11:59;;;;;;;0.73;0.50;;;;;;;21.79;55.97;101307.34;10356954;28;20248;-84
2022/07/11 14:17:02;;;;;;;0.75;0.50;;;;;;;23.03;53.61;101306.81;10378465;28;20240;-84
2022/07/11 14:22:06;;;;;;;0.63;0.63;;;;;;;23.30;52.80;101303.97;10360387;28;20216;-85
2022/07/11 14:27:08;;;;;;;0.85;0.82;;;;;;;22.96;53.83;101301.75;10385739;28;20192;-85
2022/07/11 14:32:15;;;;;;;1.23;1.15;;;;;;;23.54;51.54;101305.00;10377699;28;20275;-84
2022/07/11 14:37:17;;;;;;;3.00;1.60;;;;;;;22.11;55.89;101305.59;10383685;28;20217;-84
2022/07/11 14:42:19;;;;;;;2.08;1.98;;;;;;;23.03;53.29;101301.94;10391981;28;20491;-86
2022/07/11 14:47:42;;;;;;;2.40;2.20;;;;;;;22.93;53.19;101302.47;10368779;28;20259;-84
2022/07/11 14:52:44;;;;;;;2.30;2.10;;;;;;;22.95;54.14;101302.94;10386266;28;20243;-84
2022/07/11 14:57:47;;;;;;;1.30;1.20;;;;;;;21.86;56.97;101299.03;10382628;28;20205;-84
2022/07/11 15:13:32;;;;;;;0.98;0.90;;;;;;;21.97;57.02;101292.88;10382274;28;20626;-84
2022/07/11 15:18:35;;;;;;;0.50;0.50;;;;;;;22.21;55.63;101298.56;10397146;28;20196;-85
2022/07/11 15:23:38;;;;;;;0.52;0.52;;;;;;;22.68;54.74;101292.34;10395206;28;20284;-85
2022/07/11 15:28:41;;;;;;;4.50;1.95;;;;;;;22.90;52.78;101291.78;10393678;28;20248;-85
2022/07/11 15:33:44;;;;;;;0.80;0.80;;;;;;;22.30;54.54;101302.13;10393190;28;20249;-83
2022/07/11 15:38:49;;;;;;;0.75;0.75;;;;;;;23.46;53.02;101297.47;10365803;28;20233;-85
2022/07/11 15:43:52;;;;;;;1.13;0.60;;;;;;;23.34;52.29;101289.81;10379650;28;20216;-83
2022/07/11 15:48:55;;;;;;;1.92;1.30;;;;;;;23.36;53.67;101286.56;10367841;28;20224;-84
2022/07/11 15:53:58;;;;;;;1.20;0.70;;;;;;;23.05;52.86;101288.16;10355056;28;20690;-85
2022/07/11 15:59:00;;;;;;;0.30;0.30;;;;;;;22.77;53.41;101278.75;10393527;28;20224;-85
2022/07/11 16:04:03;;;;;;;1.38;0.22;;;;;;;23.67;51.49;101280.88;10373598;28;20240;-85
2022/07/11 16:09:06;;;;;;;0.63;0.30;;;;;;;22.86;52.50;101279.41;10381886;28;20667;-85
2022/07/11 16:14:08;;;;;;;0.28;0.28;;;;;;;22.72;52.82;101284.69;10361949;28;20271;-86
2022/07/11 16:19:10;;;;;;;1.05;0.20;;;;;;;23.46;51.87;101286.03;10396219;28;20274;-83
2022/07/11 16:24:13;;;;;;;0.52;0.20;;;;;;;23.61;51.39;101290.94;10381972;28;20241;-84
2022/07/11 16:29:16;;;;;;;0.50;0.40;;;;;;;23.24;51.15;101288.28;10372091;28;20244;-85
2022/07/11 16:34:18;;;;;;;0.90;0.30;;;;;;;23.06;51.92;101289.81;10355710;28;20306;-85
2022/07/11 16:44:42;;;;;;;0.98;0.20;;;;;;;23.23;51.41;101272.34;10365189;28;20220;-83
2022/07/11 16:49:44;;;;;;;0.32;0.20;;;;;;;23.12;50.79;101270.38;10359770;28;20254;-82
2022/07/11 16:54:48;;;;;;;0.38;0.22;;;;;;;23.63;49.67;101271.38;10375278;28;20214;-83
2022/07/11 16:59:51;;;;;;;0.10;0.10;;;;;;;23.54;49.95;101267.91;10374604;28;20271;-83
2022/07/11 17:04:54;;;;;;;0.10;0.10;;;;;;;23.03;51.18;101272.59;10397061;28;20363;-82
2022/07/11 17:09:56;;;;;;;0.20;0.10;;;;;;;23.31;50.96;101268.53;10353133;28;20229;-83
2022/07/11 17:14:58;;;;;;;0.65;0.10;;;;;;;23.25;50.50;101264.25;10373575;28;20230;-84
2022/07/11 17:20:01;;;;;;;2.15;0.13;;;;;;;23.88;48.61;101252.84;10378478;28;20545;-83
2022/07/11 17:25:03;;;;;;;0.85;0.50;;;;;;;23.20;51.11;101260.84;10400770;28;20193;-83
2022/07/11 17:30:06;;;;;;;1.10;0.30;;;;;;;23.74;48.55;101254.56;10372211;28;20345;-83
2022/07/11 17:35:09;;;;;;;0.47;0.45;;;;;;;23.74;50.22;101255.38;10370908;28;20197;-83
2022/07/11 17:40:13;;;;;;;0.80;0.20;;;;;;;22.36;52.72;101257.94;10369623;28;20213;-84
2022/07/11 17:45:16;;;;;;;1.15;0.10;;;;;;;22.97;52.13;101257.75;10363416;28;20197;-83
2022/07/11 17:50:18;;;;;;;1.48;0.25;;;;;;;23.63;49.58;101252.22;10395843;28;20227;-83
2022/07/11 17:55:21;;;;;;;1.02;0.30;;;;;;;23.19;51.16;101251.47;10385130;28;20267;-84
2022/07/11 18:00:28;;;;;;;0.90;0.30;;;;;;;22.40;52.65;101256.03;10373921;28;20196;-82
2022/07/11 18:05:35;;;;;;;0.63;0.20;;;;;;;23.61;50.54;101253.81;10371617;28;20252;-84
2022/07/11 18:10:39;;;;;;;0.15;0.15;;;;;;;23.17;50.85;101253.84;10406348;28;20295;-84
2022/07/11 18:15:44;;;;;;;0.25;0.13;;;;;;;23.28;50.90;101243.56;10398355;28;20538;-83
2022/07/11 18:20:46;;;;;;;0.25;0.10;;;;;;;23.29;51.43;101256.66;10395922;28;20228;-82
2022/07/11 18:25:49;;;;;;;0.43;0.20;;;;;;;23.11;52.21;101251.59;10398886;28;20262;-84
2022/07/11 18:30:51;;;;;;;0.80;0.15;;;;;;;23.60;50.74;101263.59;10385631;28;20287;-84
2022/07/11 18:35:54;;;;;;;0.30;0.30;;;;;;;23.44;51.45;101265.59;10386971;28;20225;-83
2022/07/11 18:41:12;;;;;;;0.20;0.13;;;;;;;23.57;51.07;101267.16;10390549;28;20619;-83
2022/07/11 18:46:14;;;;;;;0.30;0.10;;;;;;;23.26;52.34;101268.75;10392131;28;20225;-83
2022/07/11 18:51:17;;;;;;;0.55;0.20;;;;;;;23.60;51.81;101258.72;10398452;28;20278;-84
2022/07/11 18:56:19;;;;;;;0.20;0.20;;;;;;;23.72;52.41;101265.53;10377219;28;20223;-84
2022/07/11 19:01:22;;;;;;;1.02;0.30;;;;;;;23.43;52.72;101266.78;10373014;28;20264;-85
2022/07/11 19:06:24;;;;;;;2.70;1.23;;;;;;;23.28;54.23;101263.56;10370244;28;20516;-84
2022/07/11 19:11:27;;;;;;;0.85;0.40;;;;;;;23.27;54.46;101255.31;10378878;28;20228;-85
2022/07/11 19:16:30;;;;;;;0.38;0.30;;;;;;;23.04;55.32;101260.81;10390935;28;20564;-84
2022/07/11 19:21:32;;;;;;;0.47;0.38;;;;;;;23.04;55.33;101259.97;10390837;28;20201;-86
2022/07/11 19:26:35;;;;;;;0.20;0.20;;;;;;;22.75;55.45;101255.47;10345828;28;20526;-84
2022/07/11 19:31:38;;;;;;;0.77;0.30;;;;;;;22.73;56.33;101260.69;10373201;28;20255;-85
2022/07/11 19:36:41;;;;;;;1.58;0.50;;;;;;;22.45;57.53;101272.88;10393421;28;20806;-83
2022/07/11 19:41:44;;;;;;;2.33;1.73;;;;;;;22.01;58.26;101276.75;10365564;28;20219;-86
2022/07/11 19:46:46;;;;;;;0.50;0.47;;;;;;;22.34;58.04;101271.72;10401229;28;20600;-86
2022/07/11 19:51:49;;;;;;;1.40;0.75;;;;;;;21.88;60.01;101276.72;10375629;28;20213;-86
2022/07/11 20:02:12;;;;;;;1.10;0.90;;;;;;;22.07;59.62;101298.94;10401511;28;20212;-87
